sensor_id;sensor_type;location;lat;lon;timestamp;pressure;altitude;pressure_sealevel;temperature;humidity
75219;BME280;63801;49.414;19.474;2023-10-19T00:00:08;93252.69;;;1.15;72.38
75219;BME280;63801;49.414;19.474;2023-10-19T00:02:20;93254.88;;;1.13;72.66
75219;BME280;63801;49.414;19.474;2023-10-19T00:04:23;93250.19;;;1.10;72.13
75219;BME280;63801;49.414;19.474;2023-10-19T00:06:24;93249.41;;;1.10;72.27
75219;BME280;63801;49.414;19.474;2023-10-19T00:08:24;93247.81;;;1.09;72.33
75219;BME280;63801;49.414;19.474;2023-10-19T00:10:24;93245.47;;;1.07;72.45
75219;BME280;63801;49.414;19.474;2023-10-19T00:12:26;93245.28;;;1.04;72.66
75219;BME280;63801;49.414;19.474;2023-10-19T00:14:28;93248.22;;;1.02;72.53
75219;BME280;63801;49.414;19.474;2023-10-19T00:16:28;93241.97;;;0.98;72.42
75219;BME280;63801;49.414;19.474;2023-10-19T00:18:35;93242.56;;;0.95;72.45
75219;BME280;63801;49.414;19.474;2023-10-19T00:20:36;93237.09;;;0.92;72.63
75219;BME280;63801;49.414;19.474;2023-10-19T00:22:45;93235.22;;;0.92;73.07
75219;BME280;63801;49.414;19.474;2023-10-19T00:24:46;93228.34;;;0.91;73.03
75219;BME280;63801;49.414;19.474;2023-10-19T00:26:46;93235.22;;;0.92;72.85
75219;BME280;63801;49.414;19.474;2023-10-19T00:28:48;93232.69;;;0.87;72.82
75219;BME280;63801;49.414;19.474;2023-10-19T00:30:55;93230.03;;;0.87;73.07
75219;BME280;63801;49.414;19.474;2023-10-19T00:33:03;93229.25;;;0.86;73.09
75219;BME280;63801;49.414;19.474;2023-10-19T00:35:05;93223.44;;;0.84;73.11
75219;BME280;63801;49.414;19.474;2023-10-19T00:37:26;93221.41;;;0.81;73.33
75219;BME280;63801;49.414;19.474;2023-10-19T00:39:27;93217.47;;;0.79;73.08
75219;BME280;63801;49.414;19.474;2023-10-19T00:41:27;93215.72;;;0.74;72.88
75219;BME280;63801;49.414;19.474;2023-10-19T00:43:30;93208.34;;;0.71;73.15
75219;BME280;63801;49.414;19.474;2023-10-19T00:45:34;93212.22;;;0.65;73.16
75219;BME280;63801;49.414;19.474;2023-10-19T00:47:39;93201.44;;;0.62;73.18
75219;BME280;63801;49.414;19.474;2023-10-19T00:49:40;93200.25;;;0.54;73.17
75219;BME280;63801;49.414;19.474;2023-10-19T00:51:45;93194.97;;;0.54;73.56
75219;BME280;63801;49.414;19.474;2023-10-19T00:53:55;93193.41;;;0.53;73.27
75219;BME280;63801;49.414;19.474;2023-10-19T00:55:57;93192.41;;;0.49;73.39
75219;BME280;63801;49.414;19.474;2023-10-19T00:57:58;93190.09;;;0.48;73.34
75219;BME280;63801;49.414;19.474;2023-10-19T01:00:04;93186.34;;;0.49;73.53
75219;BME280;63801;49.414;19.474;2023-10-19T01:02:21;93188.50;;;0.47;73.42
75219;BME280;63801;49.414;19.474;2023-10-19T01:04:29;93172.88;;;0.45;73.69
75219;BME280;63801;49.414;19.474;2023-10-19T01:06:34;93169.28;;;0.41;73.37
75219;BME280;63801;49.414;19.474;2023-10-19T01:08:34;93171.94;;;0.41;73.49
75219;BME280;63801;49.414;19.474;2023-10-19T01:10:41;93163.69;;;0.42;73.78
75219;BME280;63801;49.414;19.474;2023-10-19T01:12:45;93148.97;;;0.36;73.65
75219;BME280;63801;49.414;19.474;2023-10-19T01:17:06;93159.63;;;0.45;73.90
75219;BME280;63801;49.414;19.474;2023-10-19T01:19:07;93128.06;;;0.35;74.07
75219;BME280;63801;49.414;19.474;2023-10-19T01:21:07;93152.97;;;0.48;73.68
75219;BME280;63801;49.414;19.474;2023-10-19T01:23:08;93143.16;;;0.48;73.69
75219;BME280;63801;49.414;19.474;2023-10-19T01:25:09;93142.94;;;0.44;73.84
75219;BME280;63801;49.414;19.474;2023-10-19T01:27:10;93136.09;;;0.43;73.89
75219;BME280;63801;49.414;19.474;2023-10-19T01:29:11;93136.09;;;0.43;73.77
75219;BME280;63801;49.414;19.474;2023-10-19T01:31:21;93134.22;;;0.44;73.63
75219;BME280;63801;49.414;19.474;2023-10-19T01:33:27;93126.28;;;0.44;73.80
75219;BME280;63801;49.414;19.474;2023-10-19T01:35:28;93134.03;;;0.40;73.99
75219;BME280;63801;49.414;19.474;2023-10-19T01:37:48;93138.44;;;0.45;74.11
75219;BME280;63801;49.414;19.474;2023-10-19T01:39:48;93128.94;;;0.44;74.07
75219;BME280;63801;49.414;19.474;2023-10-19T01:41:49;93109.81;;;0.33;74.21
75219;BME280;63801;49.414;19.474;2023-10-19T01:43:51;93119.28;;;0.48;74.11
75219;BME280;63801;49.414;19.474;2023-10-19T01:45:54;93113.66;;;0.50;74.24
75219;BME280;63801;49.414;19.474;2023-10-19T01:47:55;93108.25;;;0.55;74.65
75219;BME280;63801;49.414;19.474;2023-10-19T01:49:55;93092.34;;;0.55;74.48
75219;BME280;63801;49.414;19.474;2023-10-19T01:51:55;93084.75;;;0.62;74.53
75219;BME280;63801;49.414;19.474;2023-10-19T01:53:56;93089.44;;;0.65;74.70
75219;BME280;63801;49.414;19.474;2023-10-19T01:55:57;93082.75;;;0.67;74.33
75219;BME280;63801;49.414;19.474;2023-10-19T01:57:58;93091.66;;;0.71;74.56
75219;BME280;63801;49.414;19.474;2023-10-19T01:59:58;93086.22;;;0.76;74.33
75219;BME280;63801;49.414;19.474;2023-10-19T02:01:58;93072.69;;;0.78;74.63
75219;BME280;63801;49.414;19.474;2023-10-19T02:04:00;93081.09;;;0.80;74.59
75219;BME280;63801;49.414;19.474;2023-10-19T02:06:02;93072.22;;;0.84;74.58
75219;BME280;63801;49.414;19.474;2023-10-19T02:08:20;93068.66;;;0.89;74.53
75219;BME280;63801;49.414;19.474;2023-10-19T02:10:25;93070.72;;;0.92;74.76
75219;BME280;63801;49.414;19.474;2023-10-19T02:12:27;93060.91;;;0.93;74.73
75219;BME280;63801;49.414;19.474;2023-10-19T02:14:27;93064.31;;;0.93;74.77
75219;BME280;63801;49.414;19.474;2023-10-19T02:16:31;93069.03;;;0.96;74.81
75219;BME280;63801;49.414;19.474;2023-10-19T02:18:33;93076.97;;;0.96;74.88
75219;BME280;63801;49.414;19.474;2023-10-19T02:20:34;93054.19;;;0.95;74.82
75219;BME280;63801;49.414;19.474;2023-10-19T02:22:35;93059.00;;;0.93;74.96
75219;BME280;63801;49.414;19.474;2023-10-19T02:24:35;93066.66;;;0.95;74.94
75219;BME280;63801;49.414;19.474;2023-10-19T02:26:38;93054.19;;;0.95;75.41
75219;BME280;63801;49.414;19.474;2023-10-19T02:28:38;93055.28;;;0.94;75.57
75219;BME280;63801;49.414;19.474;2023-10-19T02:30:39;93057.00;;;0.99;75.35
75219;BME280;63801;49.414;19.474;2023-10-19T02:32:42;93041.56;;;1.01;75.46
75219;BME280;63801;49.414;19.474;2023-10-19T02:34:43;93051.88;;;1.02;75.38
75219;BME280;63801;49.414;19.474;2023-10-19T02:36:44;93031.41;;;1.03;75.61
75219;BME280;63801;49.414;19.474;2023-10-19T02:38:46;93030.78;;;0.97;75.57
75219;BME280;63801;49.414;19.474;2023-10-19T02:40:50;93032.84;;;1.09;75.56
75219;BME280;63801;49.414;19.474;2023-10-19T02:42:50;93029.91;;;1.10;75.38
75219;BME280;63801;49.414;19.474;2023-10-19T02:44:50;93025.84;;;1.13;75.33
75219;BME280;63801;49.414;19.474;2023-10-19T02:46:55;93021.94;;;1.10;75.50
75219;BME280;63801;49.414;19.474;2023-10-19T02:49:05;93027.28;;;1.19;75.34
75219;BME280;63801;49.414;19.474;2023-10-19T02:51:11;93031.66;;;1.23;75.20
75219;BME280;63801;49.414;19.474;2023-10-19T02:53:12;93027.31;;;1.27;75.29
75219;BME280;63801;49.414;19.474;2023-10-19T02:55:13;93027.16;;;1.32;75.52
75219;BME280;63801;49.414;19.474;2023-10-19T02:57:16;93021.69;;;1.38;75.71
75219;BME280;63801;49.414;19.474;2023-10-19T02:59:17;93027.97;;;1.42;75.66
75219;BME280;63801;49.414;19.474;2023-10-19T03:01:23;93017.66;;;1.49;75.56
75219;BME280;63801;49.414;19.474;2023-10-19T03:03:24;93009.56;;;1.54;75.56
75219;BME280;63801;49.414;19.474;2023-10-19T03:05:26;93008.63;;;1.58;75.48
75219;BME280;63801;49.414;19.474;2023-10-19T03:07:26;93010.81;;;1.65;75.61
75219;BME280;63801;49.414;19.474;2023-10-19T03:09:27;92997.38;;;1.70;75.18
75219;BME280;63801;49.414;19.474;2023-10-19T03:11:27;92993.66;;;1.71;75.62
75219;BME280;63801;49.414;19.474;2023-10-19T03:13:28;92996.94;;;1.76;75.45
75219;BME280;63801;49.414;19.474;2023-10-19T03:15:28;92986.75;;;1.78;75.54
75219;BME280;63801;49.414;19.474;2023-10-19T03:17:32;92978.16;;;1.81;75.40
75219;BME280;63801;49.414;19.474;2023-10-19T03:19:33;92991.16;;;1.83;75.65
75219;BME280;63801;49.414;19.474;2023-10-19T03:21:35;92983.66;;;1.85;75.47
75219;BME280;63801;49.414;19.474;2023-10-19T03:23:48;92960.19;;;1.78;75.62
75219;BME280;63801;49.414;19.474;2023-10-19T03:25:54;92979.88;;;1.86;75.71
75219;BME280;63801;49.414;19.474;2023-10-19T03:28:13;92967.06;;;1.88;76.00
75219;BME280;63801;49.414;19.474;2023-10-19T03:30:16;92965.19;;;1.89;75.67
75219;BME280;63801;49.414;19.474;2023-10-19T03:32:19;92960.03;;;1.84;75.95
75219;BME280;63801;49.414;19.474;2023-10-19T03:34:22;92958.94;;;1.93;76.07
75219;BME280;63801;49.414;19.474;2023-10-19T03:36:24;92958.94;;;1.93;75.81
75219;BME280;63801;49.414;19.474;2023-10-19T03:38:25;92958.31;;;1.96;75.93
75219;BME280;63801;49.414;19.474;2023-10-19T03:40:25;92962.22;;;1.99;75.89
75219;BME280;63801;49.414;19.474;2023-10-19T03:42:29;92947.03;;;1.99;76.09
75219;BME280;63801;49.414;19.474;2023-10-19T03:44:33;92946.44;;;2.02;75.96
75219;BME280;63801;49.414;19.474;2023-10-19T03:46:48;92940.19;;;2.07;76.30
75219;BME280;63801;49.414;19.474;2023-10-19T03:48:58;92933.59;;;2.04;75.81
75219;BME280;63801;49.414;19.474;2023-10-19T03:51:11;92927.66;;;2.07;75.89
75219;BME280;63801;49.414;19.474;2023-10-19T03:53:13;92920.94;;;2.01;75.84
75219;BME280;63801;49.414;19.474;2023-10-19T03:55:15;92926.75;;;2.03;76.06
75219;BME280;63801;49.414;19.474;2023-10-19T03:57:19;92911.91;;;1.94;76.09
75219;BME280;63801;49.414;19.474;2023-10-19T03:59:19;92906.09;;;2.00;75.98
75219;BME280;63801;49.414;19.474;2023-10-19T04:01:29;92907.19;;;1.99;75.96
75219;BME280;63801;49.414;19.474;2023-10-19T04:03:31;92895.00;;;1.98;76.24
75219;BME280;63801;49.414;19.474;2023-10-19T04:05:31;92910.97;;;1.98;76.06
75219;BME280;63801;49.414;19.474;2023-10-19T04:07:35;92903.78;;;1.99;76.33
75219;BME280;63801;49.414;19.474;2023-10-19T04:09:36;92898.75;;;1.97;76.23
75219;BME280;63801;49.414;19.474;2023-10-19T04:11:49;92897.34;;;1.91;76.32
75219;BME280;63801;49.414;19.474;2023-10-19T04:13:50;92907.38;;;1.94;76.24
75219;BME280;63801;49.414;19.474;2023-10-19T04:15:59;92894.25;;;1.89;76.26
75219;BME280;63801;49.414;19.474;2023-10-19T04:17:59;92893.00;;;1.78;76.14
75219;BME280;63801;49.414;19.474;2023-10-19T04:20:00;92906.13;;;1.83;76.15
75219;BME280;63801;49.414;19.474;2023-10-19T04:22:08;92910.66;;;1.83;76.35
75219;BME280;63801;49.414;19.474;2023-10-19T04:24:11;92900.81;;;1.83;76.43
75219;BME280;63801;49.414;19.474;2023-10-19T04:26:12;92906.13;;;1.83;76.66
75219;BME280;63801;49.414;19.474;2023-10-19T04:28:14;92866.59;;;1.64;76.23
75219;BME280;63801;49.414;19.474;2023-10-19T04:30:15;92894.41;;;1.75;76.71
75219;BME280;63801;49.414;19.474;2023-10-19T04:32:16;92879.13;;;1.72;76.65
75219;BME280;63801;49.414;19.474;2023-10-19T04:34:25;92892.06;;;1.74;76.91
75219;BME280;63801;49.414;19.474;2023-10-19T04:36:25;92877.69;;;1.75;76.55
75219;BME280;63801;49.414;19.474;2023-10-19T04:38:29;92878.78;;;1.74;76.85
75219;BME280;63801;49.414;19.474;2023-10-19T04:40:31;92878.31;;;1.80;76.69
75219;BME280;63801;49.414;19.474;2023-10-19T04:42:32;92869.72;;;1.84;77.20
75219;BME280;63801;49.414;19.474;2023-10-19T04:44:32;92873.59;;;1.86;77.06
75219;BME280;63801;49.414;19.474;2023-10-19T04:46:34;92869.41;;;1.85;77.23
75219;BME280;63801;49.414;19.474;2023-10-19T04:48:35;92860.66;;;1.85;77.02
75219;BME280;63801;49.414;19.474;2023-10-19T04:50:36;92866.75;;;1.85;76.90
75219;BME280;63801;49.414;19.474;2023-10-19T04:52:36;92857.22;;;1.84;76.73
75219;BME280;63801;49.414;19.474;2023-10-19T04:54:37;92856.91;;;1.86;76.86
75219;BME280;63801;49.414;19.474;2023-10-19T04:56:37;92862.66;;;1.88;76.89
75219;BME280;63801;49.414;19.474;2023-10-19T04:58:38;92839.84;;;1.87;77.07
75219;BME280;63801;49.414;19.474;2023-10-19T05:00:38;92846.28;;;1.86;77.38
75219;BME280;63801;49.414;19.474;2023-10-19T05:02:39;92853.63;;;1.80;77.23
75219;BME280;63801;49.414;19.474;2023-10-19T05:04:39;92843.13;;;1.84;77.09
75219;BME280;63801;49.414;19.474;2023-10-19T05:06:40;92854.56;;;1.84;77.26
75219;BME280;63801;49.414;19.474;2023-10-19T05:08:41;92862.22;;;1.86;77.50
75219;BME280;63801;49.414;19.474;2023-10-19T05:10:41;92860.00;;;1.88;77.42
75219;BME280;63801;49.414;19.474;2023-10-19T05:12:42;92846.88;;;1.91;77.58
75219;BME280;63801;49.414;19.474;2023-10-19T05:14:43;92846.09;;;1.82;77.30
75219;BME280;63801;49.414;19.474;2023-10-19T05:16:43;92858.91;;;1.97;77.38
75219;BME280;63801;49.414;19.474;2023-10-19T05:18:43;92843.41;;;1.99;77.54
75219;BME280;63801;49.414;19.474;2023-10-19T05:20:43;92845.44;;;2.02;77.41
75219;BME280;63801;49.414;19.474;2023-10-19T05:22:44;92840.56;;;2.04;77.68
75219;BME280;63801;49.414;19.474;2023-10-19T05:24:44;92843.41;;;2.08;77.55
75219;BME280;63801;49.414;19.474;2023-10-19T05:26:44;92829.63;;;2.06;77.96
75219;BME280;63801;49.414;19.474;2023-10-19T05:28:46;92841.75;;;2.33;78.12
75219;BME280;63801;49.414;19.474;2023-10-19T05:30:48;92870.28;;;2.53;78.51
75219;BME280;63801;49.414;19.474;2023-10-19T05:32:50;92846.53;;;2.77;78.81
75219;BME280;63801;49.414;19.474;2023-10-19T05:34:51;92837.75;;;3.27;79.46
75219;BME280;63801;49.414;19.474;2023-10-19T05:36:51;92839.31;;;3.81;78.86
75219;BME280;63801;49.414;19.474;2023-10-19T05:38:52;92835.44;;;4.24;78.19
75219;BME280;63801;49.414;19.474;2023-10-19T05:40:52;92842.81;;;4.63;77.67
75219;BME280;63801;49.414;19.474;2023-10-19T05:42:52;92821.69;;;4.94;77.07
75219;BME280;63801;49.414;19.474;2023-10-19T05:44:53;92837.59;;;5.03;76.30
75219;BME280;63801;49.414;19.474;2023-10-19T05:46:53;92834.34;;;5.10;76.08
75219;BME280;63801;49.414;19.474;2023-10-19T05:48:57;92842.13;;;5.15;76.28
75219;BME280;63801;49.414;19.474;2023-10-19T05:50:58;92828.00;;;5.54;76.97
75219;BME280;63801;49.414;19.474;2023-10-19T05:52:58;92843.88;;;6.03;76.50
75219;BME280;63801;49.414;19.474;2023-10-19T05:55:00;92798.63;;;6.41;76.12
75219;BME280;63801;49.414;19.474;2023-10-19T05:57:00;92811.81;;;6.97;75.61
75219;BME280;63801;49.414;19.474;2023-10-19T05:59:00;92808.25;;;7.43;75.31
75219;BME280;63801;49.414;19.474;2023-10-19T06:01:02;92802.88;;;7.62;74.13
75219;BME280;63801;49.414;19.474;2023-10-19T06:03:03;92789.19;;;7.48;73.07
75219;BME280;63801;49.414;19.474;2023-10-19T06:05:04;92808.25;;;7.43;73.00
75219;BME280;63801;49.414;19.474;2023-10-19T06:07:06;92805.66;;;7.31;73.45
75219;BME280;63801;49.414;19.474;2023-10-19T06:09:06;92816.13;;;7.36;74.08
75219;BME280;63801;49.414;19.474;2023-10-19T06:11:09;92804.59;;;7.51;72.93
75219;BME280;63801;49.414;19.474;2023-10-19T06:13:09;92796.09;;;7.49;72.66
75219;BME280;63801;49.414;19.474;2023-10-19T06:15:10;92799.97;;;7.33;72.08
75219;BME280;63801;49.414;19.474;2023-10-19T06:17:13;92803.38;;;7.30;72.67
75219;BME280;63801;49.414;19.474;2023-10-19T06:19:19;92792.16;;;7.62;73.90
75219;BME280;63801;49.414;19.474;2023-10-19T06:21:19;92797.06;;;8.18;73.58
75219;BME280;63801;49.414;19.474;2023-10-19T06:23:19;92800.50;;;8.61;73.08
75219;BME280;63801;49.414;19.474;2023-10-19T06:25:20;92800.44;;;9.02;72.56
75219;BME280;63801;49.414;19.474;2023-10-19T06:27:21;92784.38;;;9.36;71.84
75219;BME280;63801;49.414;19.474;2023-10-19T06:29:22;92790.41;;;9.56;71.10
75219;BME280;63801;49.414;19.474;2023-10-19T06:31:27;92761.91;;;9.51;70.11
75219;BME280;63801;49.414;19.474;2023-10-19T06:33:28;92765.03;;;9.57;70.14
75219;BME280;63801;49.414;19.474;2023-10-19T06:35:30;92777.00;;;9.92;69.28
75219;BME280;63801;49.414;19.474;2023-10-19T06:37:33;92788.09;;;9.87;68.15
75219;BME280;63801;49.414;19.474;2023-10-19T06:39:33;92780.41;;;9.56;68.24
75219;BME280;63801;49.414;19.474;2023-10-19T06:41:33;92768.59;;;9.34;68.27
75219;BME280;63801;49.414;19.474;2023-10-19T06:43:34;92770.59;;;9.11;68.28
75219;BME280;63801;49.414;19.474;2023-10-19T06:45:36;92766.19;;;8.99;68.80
75219;BME280;63801;49.414;19.474;2023-10-19T06:47:36;92765.00;;;8.97;68.97
75219;BME280;63801;49.414;19.474;2023-10-19T06:49:40;92762.84;;;9.06;69.48
75219;BME280;63801;49.414;19.474;2023-10-19T06:51:40;92746.63;;;9.29;69.36
75219;BME280;63801;49.414;19.474;2023-10-19T06:53:40;92758.78;;;9.79;68.65
75219;BME280;63801;49.414;19.474;2023-10-19T06:55:41;92758.09;;;10.22;68.35
75219;BME280;63801;49.414;19.474;2023-10-19T06:57:47;92753.63;;;10.81;68.37
75219;BME280;63801;49.414;19.474;2023-10-19T06:59:47;92756.31;;;11.36;65.72
75219;BME280;63801;49.414;19.474;2023-10-19T07:01:48;92746.84;;;11.63;64.76
75219;BME280;63801;49.414;19.474;2023-10-19T07:03:48;92744.25;;;11.84;64.58
75219;BME280;63801;49.414;19.474;2023-10-19T07:05:48;92736.25;;;12.16;63.63
75219;BME280;63801;49.414;19.474;2023-10-19T07:07:52;92734.75;;;12.47;63.35
75219;BME280;63801;49.414;19.474;2023-10-19T07:09:54;92734.00;;;12.85;62.00
75219;BME280;63801;49.414;19.474;2023-10-19T07:11:54;92738.63;;;13.10;60.53
75219;BME280;63801;49.414;19.474;2023-10-19T07:13:56;92731.69;;;13.26;60.47
75219;BME280;63801;49.414;19.474;2023-10-19T07:15:57;92729.34;;;13.32;60.56
75219;BME280;63801;49.414;19.474;2023-10-19T07:17:58;92723.53;;;13.37;59.26
75219;BME280;63801;49.414;19.474;2023-10-19T07:19:59;92722.38;;;13.38;57.93
75219;BME280;63801;49.414;19.474;2023-10-19T07:21:59;92713.13;;;13.07;58.02
75219;BME280;63801;49.414;19.474;2023-10-19T07:24:04;92717.78;;;12.71;58.47
75219;BME280;63801;49.414;19.474;2023-10-19T07:26:09;92708.88;;;12.42;58.64
75219;BME280;63801;49.414;19.474;2023-10-19T07:28:12;92709.19;;;12.05;59.10
75219;BME280;63801;49.414;19.474;2023-10-19T07:30:12;92718.03;;;11.95;59.78
75219;BME280;63801;49.414;19.474;2023-10-19T07:32:15;92718.81;;;11.92;58.45
75219;BME280;63801;49.414;19.474;2023-10-19T07:34:17;92714.13;;;11.82;58.83
75219;BME280;63801;49.414;19.474;2023-10-19T07:36:18;92698.97;;;11.53;58.43
75219;BME280;63801;49.414;19.474;2023-10-19T07:38:18;92706.63;;;11.37;58.47
75219;BME280;63801;49.414;19.474;2023-10-19T07:40:21;92712.19;;;11.00;58.29
75219;BME280;63801;49.414;19.474;2023-10-19T07:42:24;92703.03;;;10.57;57.94
75219;BME280;63801;49.414;19.474;2023-10-19T07:44:25;92706.91;;;10.19;57.93
75219;BME280;63801;49.414;19.474;2023-10-19T07:46:26;92702.34;;;9.86;58.33
75219;BME280;63801;49.414;19.474;2023-10-19T07:48:26;92695.00;;;9.50;58.54
75219;BME280;63801;49.414;19.474;2023-10-19T07:50:26;92717.72;;;9.22;59.10
75219;BME280;63801;49.414;19.474;2023-10-19T07:52:27;92691.94;;;8.88;59.70
75219;BME280;63801;49.414;19.474;2023-10-19T07:54:28;92711.41;;;8.81;59.90
75219;BME280;63801;49.414;19.474;2023-10-19T07:56:29;92700.78;;;8.62;60.41
75219;BME280;63801;49.414;19.474;2023-10-19T07:58:29;92698.22;;;8.46;60.01
75219;BME280;63801;49.414;19.474;2023-10-19T08:00:30;92703.44;;;8.36;60.91
75219;BME280;63801;49.414;19.474;2023-10-19T08:02:31;92696.28;;;8.24;61.20
75219;BME280;63801;49.414;19.474;2023-10-19T08:04:34;92699.94;;;8.12;61.52
75219;BME280;63801;49.414;19.474;2023-10-19T08:06:34;92694.38;;;8.02;61.72
75219;BME280;63801;49.414;19.474;2023-10-19T08:08:35;92689.31;;;7.97;62.18
75219;BME280;63801;49.414;19.474;2023-10-19T08:10:35;92687.41;;;7.97;62.55
75219;BME280;63801;49.414;19.474;2023-10-19T08:12:40;92684.38;;;7.99;63.02
75219;BME280;63801;49.414;19.474;2023-10-19T08:14:43;92680.66;;;8.07;63.01
75219;BME280;63801;49.414;19.474;2023-10-19T08:16:43;92680.81;;;8.14;63.06
75219;BME280;63801;49.414;19.474;2023-10-19T08:18:44;92690.00;;;8.13;63.13
75219;BME280;63801;49.414;19.474;2023-10-19T08:20:44;92684.63;;;8.13;63.14
75219;BME280;63801;49.414;19.474;2023-10-19T08:22:50;92684.72;;;8.20;63.43
75219;BME280;63801;49.414;19.474;2023-10-19T08:24:51;92674.13;;;8.27;63.98
75219;BME280;63801;49.414;19.474;2023-10-19T08:26:52;92658.13;;;8.34;63.96
75219;BME280;63801;49.414;19.474;2023-10-19T08:28:52;92643.59;;;8.35;64.13
75219;BME280;63801;49.414;19.474;2023-10-19T08:30:53;92625.88;;;8.31;63.53
75219;BME280;63801;49.414;19.474;2023-10-19T08:33:02;92643.53;;;8.32;63.77
75219;BME280;63801;49.414;19.474;2023-10-19T08:35:03;92624.53;;;8.44;64.40
75219;BME280;63801;49.414;19.474;2023-10-19T08:37:05;92632.53;;;8.67;64.63
75219;BME280;63801;49.414;19.474;2023-10-19T08:39:07;92630.06;;;8.84;64.89
75219;BME280;63801;49.414;19.474;2023-10-19T08:41:07;92627.72;;;9.13;64.67
75219;BME280;63801;49.414;19.474;2023-10-19T08:43:08;92620.66;;;9.34;64.79
75219;BME280;63801;49.414;19.474;2023-10-19T08:45:14;92618.16;;;9.52;64.65
75219;BME280;63801;49.414;19.474;2023-10-19T08:47:14;92619.44;;;9.65;64.35
75219;BME280;63801;49.414;19.474;2023-10-19T08:49:15;92611.78;;;9.67;64.03
75219;BME280;63801;49.414;19.474;2023-10-19T08:51:17;92602.94;;;9.67;64.12
75219;BME280;63801;49.414;19.474;2023-10-19T08:53:21;92583.63;;;9.54;64.23
75219;BME280;63801;49.414;19.474;2023-10-19T08:55:22;92609.88;;;9.68;64.11
75219;BME280;63801;49.414;19.474;2023-10-19T08:57:23;92603.78;;;9.74;64.00
75219;BME280;63801;49.414;19.474;2023-10-19T08:59:23;92602.66;;;9.75;63.84
75219;BME280;63801;49.414;19.474;2023-10-19T09:01:24;92614.53;;;9.71;63.94
75219;BME280;63801;49.414;19.474;2023-10-19T09:03:24;92607.19;;;9.68;64.22
75219;BME280;63801;49.414;19.474;2023-10-19T09:05:25;92607.09;;;9.61;64.09
75219;BME280;63801;49.414;19.474;2023-10-19T09:07:33;92597.75;;;9.47;64.44
75219;BME280;63801;49.414;19.474;2023-10-19T09:09:34;92606.25;;;9.50;64.44
75219;BME280;63801;49.414;19.474;2023-10-19T09:11:35;92600.84;;;9.46;64.80
75219;BME280;63801;49.414;19.474;2023-10-19T09:13:45;92603.13;;;9.47;65.06
75219;BME280;63801;49.414;19.474;2023-10-19T09:15:48;92601.25;;;9.52;65.05
75219;BME280;63801;49.414;19.474;2023-10-19T09:17:49;92595.94;;;9.55;65.20
75219;BME280;63801;49.414;19.474;2023-10-19T09:19:49;92592.47;;;9.55;65.93
75219;BME280;63801;49.414;19.474;2023-10-19T09:21:49;92617.63;;;9.73;68.49
75219;BME280;63801;49.414;19.474;2023-10-19T09:23:50;92612.34;;;9.87;68.74
75219;BME280;63801;49.414;19.474;2023-10-19T09:25:52;92604.81;;;10.03;69.11
75219;BME280;63801;49.414;19.474;2023-10-19T09:27:55;92608.03;;;10.19;68.91
75219;BME280;63801;49.414;19.474;2023-10-19T09:29:55;92620.84;;;10.33;69.41
75219;BME280;63801;49.414;19.474;2023-10-19T09:31:58;92625.19;;;10.48;69.56
75219;BME280;63801;49.414;19.474;2023-10-19T09:34:00;92616.81;;;10.64;69.50
75219;BME280;63801;49.414;19.474;2023-10-19T09:36:04;92612.28;;;10.78;69.53
75219;BME280;63801;49.414;19.474;2023-10-19T09:38:05;92584.22;;;10.87;69.61
75219;BME280;63801;49.414;19.474;2023-10-19T09:40:07;92610.47;;;10.97;69.57
75219;BME280;63801;49.414;19.474;2023-10-19T09:42:14;92597.00;;;11.04;69.47
75219;BME280;63801;49.414;19.474;2023-10-19T09:44:18;92606.28;;;11.13;69.33
75219;BME280;63801;49.414;19.474;2023-10-19T09:46:27;92616.75;;;11.25;69.64
75219;BME280;63801;49.414;19.474;2023-10-19T09:48:30;92623.34;;;11.39;69.15
75219;BME280;63801;49.414;19.474;2023-10-19T09:50:35;92590.22;;;11.45;68.97
75219;BME280;63801;49.414;19.474;2023-10-19T09:52:36;92607.19;;;11.46;68.83
75219;BME280;63801;49.414;19.474;2023-10-19T09:54:45;92582.13;;;11.42;68.67
75219;BME280;63801;49.414;19.474;2023-10-19T09:56:52;92593.34;;;11.54;68.64
75219;BME280;63801;49.414;19.474;2023-10-19T09:59:03;92586.38;;;11.53;68.47
75219;BME280;63801;49.414;19.474;2023-10-19T10:01:05;92572.06;;;11.42;68.31
75219;BME280;63801;49.414;19.474;2023-10-19T10:07:43;92568.25;;;11.50;68.49
75219;BME280;63801;49.414;19.474;2023-10-19T10:09:44;92560.91;;;11.44;68.71
75219;BME280;63801;49.414;19.474;2023-10-19T10:11:48;92549.75;;;11.42;68.67
75219;BME280;63801;49.414;19.474;2023-10-19T10:13:49;92553.19;;;11.42;69.14
75219;BME280;63801;49.414;19.474;2023-10-19T10:15:55;92552.81;;;11.40;68.96
75219;BME280;63801;49.414;19.474;2023-10-19T10:17:55;92541.25;;;11.40;69.21
75219;BME280;63801;49.414;19.474;2023-10-19T10:22:14;92545.50;;;11.41;69.49
75219;BME280;63801;49.414;19.474;2023-10-19T10:24:16;92542.44;;;11.46;69.54
75219;BME280;63801;49.414;19.474;2023-10-19T10:26:17;92535.09;;;11.50;69.07
75219;BME280;63801;49.414;19.474;2023-10-19T10:28:18;92538.94;;;11.52;69.41
75219;BME280;63801;49.414;19.474;2023-10-19T10:30:19;92533.19;;;11.57;69.53
75219;BME280;63801;49.414;19.474;2023-10-19T10:32:45;92532.44;;;11.67;69.44
75219;BME280;63801;49.414;19.474;2023-10-19T10:34:45;92529.38;;;11.76;69.23
75219;BME280;63801;49.414;19.474;2023-10-19T10:37:03;92529.00;;;11.88;69.51
75219;BME280;63801;49.414;19.474;2023-10-19T10:39:03;92542.47;;;11.95;69.21
75219;BME280;63801;49.414;19.474;2023-10-19T10:41:05;92529.38;;;12.04;68.91
75219;BME280;63801;49.414;19.474;2023-10-19T10:43:09;92501.56;;;12.14;68.95
75219;BME280;63801;49.414;19.474;2023-10-19T10:45:19;92519.31;;;12.26;68.60
75219;BME280;63801;49.414;19.474;2023-10-19T10:47:22;92519.31;;;12.33;68.33
75219;BME280;63801;49.414;19.474;2023-10-19T10:49:24;92507.34;;;12.27;68.23
75219;BME280;63801;49.414;19.474;2023-10-19T10:51:27;92513.09;;;12.47;68.10
75219;BME280;63801;49.414;19.474;2023-10-19T10:53:29;92513.09;;;12.54;68.30
75219;BME280;63801;49.414;19.474;2023-10-19T10:55:29;92501.88;;;12.59;68.01